Anthony, Texas
Current Conditions -  °F | °C
As of 4:58 PM on Friday 28 Nov 2014 (Local Time) from KBIF Reporting Station
Clear Clear  
Wind Chill: 64°   Ceiling: Unl
Heat Index: 64°   Visibility: 10mi
Dew Point: 18°   Wind: 5mph
Humidity: 17%   Direction: 150°SSE
Pressure: 30.08"   Gusts: NA
Location:  32°N, 106.61°W
Report Text: KBIF 282358Z AUTO 15004KT 10SM CLR 18/M08 A3008 RMK AO2 SLP163 T01761079 10196 20135 57013 $
Loading
Personal Weather Stations






























Interactive Weather Map New forecast layout! Learn more

10-Day Weather Forecast

Advertisements
Track Severe Weather on mobile